Time;durP1;ratioP1;P1;durP2;ratioP2;P2;SDS_P1;SDS_P2;PMS_P1;PMS_P2;Temp;Humidity;BMP_temperature;BMP_pressure;BME280_temperature;BME280_humidity;BME280_pressure;Samples;Min_cycle;Max_cycle;Signal;HPM_P1;HPM_P2
2022/05/20 00:00:48;;;;;;;6.20;5.00;;;25.70;1.00;;;;;;5010627;28;20034;-39
2022/05/20 00:03:14;;;;;;;9.05;5.30;;;25.70;1.00;;;;;;5004126;28;20122;-39
2022/05/20 00:05:40;;;;;;;8.07;5.32;;;25.70;1.00;;;;;;5025671;28;20030;-39
2022/05/20 00:08:07;;;;;;;6.53;5.10;;;25.70;1.00;;;;;;5006230;28;20041;-48
2022/05/20 00:10:33;;;;;;;10.00;5.18;;;25.60;1.00;;;;;;5010494;28;20491;-39
2022/05/20 00:12:59;;;;;;;7.40;5.38;;;25.60;1.00;;;;;;5013983;28;20018;-42
2022/05/20 00:15:27;;;;;;;10.65;6.13;;;25.70;1.00;;;;;;5012719;28;20050;-39
2022/05/20 00:17:54;;;;;;;13.27;5.53;;;25.80;1.00;;;;;;5013995;28;20060;-39
2022/05/20 00:20:21;;;;;;;9.23;5.88;;;25.80;1.00;;;;;;5012678;28;20770;-38
2022/05/20 00:22:47;;;;;;;15.43;6.65;;;25.80;1.00;;;;;;5013594;28;20034;-39
2022/05/20 00:28:00;;;;;;;14.80;7.63;;;25.70;1.00;;;;;;5012390;28;20037;-39
2022/05/20 00:30:26;;;;;;;12.15;9.18;;;25.60;1.00;;;;;;5012488;28;20026;-39
2022/05/20 00:32:52;;;;;;;9.98;8.75;;;25.60;1.00;;;;;;5012759;28;20373;-39
2022/05/20 00:35:19;;;;;;;12.07;8.98;;;25.50;1.00;;;;;;5012636;28;20041;-38
2022/05/20 00:37:44;;;;;;;12.50;9.00;;;25.50;1.00;;;;;;5012720;28;20428;-39
2022/05/20 00:40:13;;;;;;;14.60;9.25;;;25.50;1.00;;;;;;5013016;28;20112;-40
2022/05/20 00:42:40;;;;;;;13.20;9.13;;;25.50;1.00;;;;;;5013870;28;20495;-39
2022/05/20 00:45:07;;;;;;;13.32;9.43;;;25.40;1.00;;;;;;5013174;28;20476;-39
2022/05/20 00:47:33;;;;;;;13.90;10.18;;;25.40;1.00;;;;;;5013808;28;20021;-38
2022/05/20 00:50:04;;;;;;;12.07;9.73;;;25.30;1.00;;;;;;5011836;28;20029;-39
2022/05/20 00:52:33;;;;;;;14.10;11.25;;;25.30;1.00;;;;;;5011956;28;20030;-38
2022/05/20 00:55:04;;;;;;;12.93;11.07;;;25.20;1.00;;;;;;5012853;28;20034;-38
2022/05/20 00:57:38;;;;;;;15.63;10.70;;;25.10;1.00;;;;;;5012838;28;20036;-39
2022/05/20 01:00:10;;;;;;;15.50;11.07;;;25.00;1.00;;;;;;5012913;28;20303;-39
2022/05/20 01:02:36;;;;;;;11.40;10.20;;;24.90;1.00;;;;;;5012546;28;20026;-39
2022/05/20 01:05:05;;;;;;;13.88;9.75;;;24.80;1.00;;;;;;5010688;28;20116;-39
2022/05/20 01:07:36;;;;;;;16.42;9.88;;;24.70;1.00;;;;;;5013522;28;20046;-39
2022/05/20 01:10:03;;;;;;;10.95;9.50;;;24.70;1.00;;;;;;5011071;28;20084;-39
2022/05/20 01:12:28;;;;;;;13.77;9.15;;;24.70;1.00;;;;;;5013563;28;20451;-39
2022/05/20 01:14:54;;;;;;;9.52;8.63;;;24.70;1.00;;;;;;5010227;28;20077;-38
2022/05/20 01:17:21;;;;;;;14.88;8.68;;;24.60;1.00;;;;;;5013578;28;20108;-39
2022/05/20 01:19:54;;;;;;;10.60;7.50;;;24.60;1.00;;;;;;5006215;28;20049;-39
2022/05/20 01:22:48;;;;;;;10.30;8.10;;;24.50;1.00;;;;;;4992878;28;20030;-40
2022/05/20 01:25:14;;;;;;;10.18;7.20;;;24.30;1.00;;;;;;5010519;28;20038;-38
2022/05/20 01:27:42;;;;;;;9.77;6.97;;;24.30;1.00;;;;;;5009066;28;20030;-39
2022/05/20 01:30:13;;;;;;;9.43;6.38;;;24.20;1.00;;;;;;5010938;28;20061;-38
2022/05/20 01:32:39;;;;;;;11.40;6.82;;;24.20;1.00;;;;;;5012626;28;20048;-40
2022/05/20 01:35:11;;;;;;;13.27;6.93;;;24.20;1.00;;;;;;5010312;28;20030;-39
2022/05/20 01:37:36;;;;;;;11.07;6.47;;;24.20;1.00;;;;;;4997445;28;20131;-40
2022/05/20 01:40:03;;;;;;;10.20;5.63;;;24.20;1.00;;;;;;4993290;28;20134;-39
2022/05/20 01:42:46;;;;;;;6.18;5.57;;;24.10;1.00;;;;;;5012606;28;20042;-40
2022/05/20 01:45:25;;;;;;;12.85;6.40;;;24.10;1.00;;;;;;4995768;28;20083;-39
2022/05/20 01:47:58;;;;;;;13.45;5.80;;;24.10;1.00;;;;;;4993499;28;20030;-39
2022/05/20 01:50:31;;;;;;;9.15;5.35;;;24.10;1.00;;;;;;4995737;28;20049;-39
2022/05/20 01:53:21;;;;;;;9.57;5.47;;;24.10;1.00;;;;;;5013065;28;20030;-39
2022/05/20 01:55:52;;;;;;;8.25;4.90;;;24.00;1.00;;;;;;5009074;28;20058;-39
2022/05/20 01:58:39;;;;;;;9.85;5.93;;;24.00;1.00;;;;;;4993376;28;20050;-39
2022/05/20 02:01:11;;;;;;;7.47;5.20;;;24.00;1.00;;;;;;4999857;28;20025;-40
2022/05/20 02:03:49;;;;;;;6.13;4.85;;;23.90;1.00;;;;;;4992141;28;20022;-39
2022/05/20 02:06:47;;;;;;;7.93;5.15;;;23.80;1.00;;;;;;5004104;28;20034;-39
2022/05/20 02:09:21;;;;;;;7.10;4.65;;;23.90;1.00;;;;;;5004078;28;20034;-39
2022/05/20 02:11:55;;;;;;;10.00;4.85;;;23.90;1.00;;;;;;5011020;28;20476;-39
2022/05/20 02:14:25;;;;;;;7.15;4.95;;;23.90;1.00;;;;;;5005705;28;20491;-38
2022/05/20 02:17:13;;;;;;;9.35;5.13;;;23.90;1.00;;;;;;5005765;28;20034;-39
2022/05/20 02:19:56;;;;;;;6.68;4.40;;;23.90;1.00;;;;;;5006882;28;20124;-39
2022/05/20 02:22:25;;;;;;;8.27;4.82;;;23.90;1.00;;;;;;5009388;28;20065;-39
2022/05/20 02:24:52;;;;;;;5.70;4.03;;;23.90;1.00;;;;;;5004843;28;20022;-39
2022/05/20 02:27:23;;;;;;;6.63;4.32;;;23.90;1.00;;;;;;5011817;28;20030;-39
2022/05/20 02:30:00;;;;;;;8.98;4.22;;;23.80;1.00;;;;;;5012534;28;20025;-39
2022/05/20 02:32:34;;;;;;;9.60;4.10;;;23.90;1.00;;;;;;5010440;28;20010;-39
2022/05/20 02:35:00;;;;;;;5.05;4.00;;;23.80;1.00;;;;;;5008980;28;20038;-43
2022/05/20 02:37:31;;;;;;;8.90;4.07;;;23.80;1.00;;;;;;5013827;28;20064;-39
2022/05/20 02:39:58;;;;;;;6.22;4.15;;;23.80;1.00;;;;;;5016449;28;20033;-39
2022/05/20 02:42:26;;;;;;;6.72;4.00;;;23.80;1.00;;;;;;5010086;28;20050;-40
2022/05/20 02:44:52;;;;;;;7.32;4.32;;;23.80;1.00;;;;;;4997042;28;20388;-39
2022/05/20 02:47:19;;;;;;;7.63;3.72;;;23.80;1.00;;;;;;5003829;28;20031;-39
2022/05/20 02:49:45;;;;;;;8.40;4.20;;;23.80;1.00;;;;;;4996989;28;20026;-39
2022/05/20 02:52:12;;;;;;;9.75;4.70;;;23.70;1.00;;;;;;5007773;28;20372;-39
2022/05/20 02:54:38;;;;;;;4.47;3.67;;;23.70;1.00;;;;;;4996673;28;20452;-39
2022/05/20 02:57:04;;;;;;;5.75;4.18;;;23.70;1.00;;;;;;5005081;28;20026;-39
2022/05/20 03:08:28;;;;;;;7.45;4.55;;;23.60;1.00;;;;;;4999459;28;20038;-39
2022/05/20 03:10:55;;;;;;;8.02;4.40;;;23.60;1.00;;;;;;5000682;28;20034;-40
2022/05/20 03:13:20;;;;;;;10.02;5.22;;;23.60;1.00;;;;;;5014594;28;20030;-37
2022/05/20 03:15:46;;;;;;;8.40;4.68;;;23.50;1.00;;;;;;5014453;28;20057;-39
2022/05/20 03:18:13;;;;;;;9.43;4.97;;;23.50;1.00;;;;;;5015757;28;20018;-38
2022/05/20 03:20:41;;;;;;;5.85;4.63;;;23.50;1.00;;;;;;5014393;28;20042;-39
2022/05/20 03:23:09;;;;;;;9.75;4.80;;;23.50;1.00;;;;;;5013521;28;20422;-40
2022/05/20 03:25:36;;;;;;;5.38;4.88;;;23.40;1.00;;;;;;5014517;28;20068;-40
2022/05/20 03:28:02;;;;;;;7.45;5.15;;;23.30;1.00;;;;;;5015561;28;20163;-39
2022/05/20 03:30:27;;;;;;;11.93;5.60;;;23.40;1.00;;;;;;5014722;28;20116;-39
2022/05/20 03:36:24;;;;;;;7.68;5.03;;;23.30;1.00;;;;;;4998004;28;20129;-39
2022/05/20 03:38:49;;;;;;;10.10;5.20;;;23.40;1.00;;;;;;4998246;28;20034;-38
2022/05/20 03:41:15;;;;;;;10.68;4.75;;;23.30;1.00;;;;;;4995311;28;20431;-39
2022/05/20 03:43:41;;;;;;;7.35;4.57;;;23.30;1.00;;;;;;5006484;28;20542;-38
2022/05/20 03:46:08;;;;;;;5.97;4.80;;;23.30;1.00;;;;;;5014272;28;20388;-39
2022/05/20 03:48:34;;;;;;;8.25;5.28;;;23.30;1.00;;;;;;5014138;28;20442;-39
2022/05/20 03:51:14;;;;;;;8.55;4.93;;;23.30;1.00;;;;;;5012082;28;20037;-38
2022/05/20 03:53:40;;;;;;;9.65;5.10;;;23.30;1.00;;;;;;5001578;28;20443;-40
2022/05/20 03:56:07;;;;;;;7.47;5.00;;;23.40;1.00;;;;;;4995347;28;20034;-39
2022/05/20 03:58:33;;;;;;;6.47;5.20;;;23.30;1.00;;;;;;5005606;28;20512;-39
2022/05/20 04:03:45;;;;;;;7.38;4.90;;;23.30;1.00;;;;;;5007019;28;20084;-39
2022/05/20 04:06:12;;;;;;;9.27;5.38;;;23.30;1.00;;;;;;5014833;28;20479;-39
2022/05/20 04:08:38;;;;;;;6.90;5.07;;;23.30;1.00;;;;;;5012159;28;20079;-39
2022/05/20 04:11:06;;;;;;;10.25;5.35;;;23.30;1.00;;;;;;5014922;28;20152;-39
2022/05/20 04:13:32;;;;;;;5.50;4.78;;;23.20;1.00;;;;;;5012808;28;20100;-39
2022/05/20 04:15:58;;;;;;;16.63;5.28;;;23.20;1.00;;;;;;5014569;28;20045;-39
2022/05/20 04:18:24;;;;;;;13.32;5.57;;;23.10;1.00;;;;;;5012928;28;20030;-39
2022/05/20 04:20:50;;;;;;;7.97;4.82;;;23.10;1.00;;;;;;5014655;28;20578;-39
2022/05/20 04:23:17;;;;;;;5.45;4.60;;;23.20;1.00;;;;;;5013662;28;20095;-39
2022/05/20 04:25:44;;;;;;;8.45;4.63;;;23.20;1.00;;;;;;5013170;28;20029;-38
2022/05/20 04:28:11;;;;;;;5.95;4.53;;;23.20;1.00;;;;;;5007433;28;20472;-40
2022/05/20 04:30:36;;;;;;;9.30;4.75;;;23.20;1.00;;;;;;5005829;28;20030;-39
2022/05/20 04:33:02;;;;;;;13.32;5.32;;;23.20;1.00;;;;;;5009025;28;20482;-39
2022/05/20 04:35:28;;;;;;;12.55;5.50;;;23.10;1.00;;;;;;5011723;28;20492;-39
2022/05/20 04:37:54;;;;;;;9.45;4.68;;;23.10;1.00;;;;;;5009429;28;20049;-39
2022/05/20 04:40:19;;;;;;;7.82;5.38;;;23.10;1.00;;;;;;5008444;28;20424;-39
2022/05/20 04:48:13;;;;;;;11.75;5.55;;;23.10;1.00;;;;;;5010769;28;20041;-39
2022/05/20 04:50:40;;;;;;;5.97;4.97;;;23.10;1.00;;;;;;5012413;28;20380;-39
2022/05/20 04:53:06;;;;;;;5.80;4.40;;;23.10;1.00;;;;;;5011095;28;20073;-39
2022/05/20 04:55:32;;;;;;;6.88;4.78;;;23.10;1.00;;;;;;5013210;28;20037;-39
2022/05/20 04:57:59;;;;;;;9.73;4.55;;;23.10;1.00;;;;;;5011616;28;20046;-39
2022/05/20 05:00:28;;;;;;;6.38;4.47;;;23.10;1.00;;;;;;5013867;28;20509;-39
2022/05/20 05:02:55;;;;;;;11.77;5.22;;;23.10;1.00;;;;;;5011920;28;20029;-39
2022/05/20 05:05:24;;;;;;;6.70;4.43;;;23.00;1.00;;;;;;5009442;28;20097;-39
2022/05/20 05:07:52;;;;;;;8.18;4.63;;;23.00;1.00;;;;;;4996233;28;22182;-40
2022/05/20 05:10:24;;;;;;;6.80;4.65;;;23.10;1.00;;;;;;5012828;28;20109;-39
2022/05/20 05:12:49;;;;;;;6.97;4.28;;;23.10;1.00;;;;;;5012721;28;20391;-40
2022/05/20 05:15:16;;;;;;;6.90;4.43;;;23.10;1.00;;;;;;5013478;28;20030;-40
2022/05/20 05:20:27;;;;;;;;;;;23.10;1.00;;;;;;5014229;28;20064;-39
2022/05/20 05:22:55;;;;;;;7.43;3.47;;;23.10;1.00;;;;;;5007881;28;19917;-40
2022/05/20 05:25:23;;;;;;;5.03;3.10;;;23.10;1.00;;;;;;5013567;28;20026;-40
2022/05/20 05:27:49;;;;;;;6.28;3.55;;;23.10;1.00;;;;;;5011535;28;20030;-40
2022/05/20 05:30:16;;;;;;;5.97;2.78;;;23.00;1.00;;;;;;5013301;28;20033;-39
2022/05/20 05:32:42;;;;;;;6.75;3.22;;;23.00;1.00;;;;;;5003256;28;20045;-39
2022/05/20 05:35:12;;;;;;;8.20;3.80;;;22.90;1.00;;;;;;5011842;28;20046;-40
2022/05/20 05:37:39;;;;;;;5.65;3.65;;;23.00;1.00;;;;;;4999391;28;20061;-39
2022/05/20 05:40:07;;;;;;;9.30;3.70;;;23.10;1.00;;;;;;5010441;28;20030;-39
2022/05/20 05:42:32;;;;;;;8.98;4.00;;;23.10;1.00;;;;;;4993518;28;20117;-39
2022/05/20 05:44:59;;;;;;;5.57;4.00;;;23.10;1.00;;;;;;5006954;28;20118;-39
2022/05/20 05:47:25;;;;;;;7.88;3.83;;;23.10;1.00;;;;;;5012332;28;20041;-39
2022/05/20 05:49:51;;;;;;;7.78;4.40;;;23.20;1.00;;;;;;4995394;28;20030;-39
2022/05/20 05:52:16;;;;;;;9.02;4.68;;;23.20;1.00;;;;;;4995136;28;20026;-39
2022/05/20 05:54:42;;;;;;;8.48;4.50;;;23.20;1.00;;;;;;5005055;28;20034;-39
2022/05/20 05:57:08;;;;;;;10.63;5.63;;;23.30;1.00;;;;;;4994426;28;20477;-39
2022/05/20 05:59:34;;;;;;;11.55;4.95;;;23.20;1.00;;;;;;5010179;28;20068;-39
2022/05/20 06:02:01;;;;;;;9.57;4.95;;;23.30;1.00;;;;;;5003737;28;20494;-38
2022/05/20 06:04:27;;;;;;;8.38;5.15;;;23.40;1.00;;;;;;5005980;28;20502;-39
2022/05/20 06:06:54;;;;;;;8.73;4.72;;;23.40;1.00;;;;;;5012090;28;20081;-39
2022/05/20 06:09:21;;;;;;;14.00;5.38;;;23.40;1.00;;;;;;5013139;28;20550;-39
2022/05/20 06:11:46;;;;;;;12.00;5.35;;;23.40;1.00;;;;;;5009829;28;20095;-39
2022/05/20 06:14:12;;;;;;;8.25;5.63;;;23.40;1.00;;;;;;5000105;28;20531;-39
2022/05/20 06:16:38;;;;;;;9.88;5.40;;;23.40;1.00;;;;;;5014281;28;20034;-40
2022/05/20 06:19:04;;;;;;;10.02;5.45;;;23.50;1.00;;;;;;4996839;28;20079;-39
2022/05/20 06:21:30;;;;;;;9.07;5.55;;;23.50;1.00;;;;;;4997162;28;20058;-39
2022/05/20 06:23:55;;;;;;;8.98;5.03;;;23.50;1.00;;;;;;4998541;28;20034;-38
2022/05/20 06:26:21;;;;;;;10.02;5.05;;;23.50;1.00;;;;;;5000670;28;20036;-39
2022/05/20 06:28:47;;;;;;;7.18;4.38;;;23.50;1.00;;;;;;5000504;28;20524;-39
2022/05/20 06:31:13;;;;;;;6.78;5.35;;;23.50;1.00;;;;;;5008686;28;20033;-39
2022/05/20 06:33:39;;;;;;;6.78;4.88;;;23.50;1.00;;;;;;5015673;28;20484;-41
2022/05/20 06:41:34;;;;;;;7.85;4.47;;;23.50;1.00;;;;;;5013344;28;20593;-39
2022/05/20 06:44:01;;;;;;;9.07;5.28;;;23.50;1.00;;;;;;5017118;28;20113;-39
2022/05/20 06:49:48;;;;;;;5.72;5.13;;;23.60;1.00;;;;;;5004598;28;20075;-39
2022/05/20 06:52:14;;;;;;;7.97;5.32;;;23.60;1.00;;;;;;5012562;28;20030;-39
2022/05/20 06:54:40;;;;;;;6.20;5.03;;;23.60;1.00;;;;;;5013539;28;20048;-39
2022/05/20 06:57:05;;;;;;;11.93;6.13;;;23.70;1.00;;;;;;5012731;28;20036;-40
2022/05/20 07:06:53;;;;;;;10.52;4.97;;;23.80;1.00;;;;;;5010640;28;20037;-39
2022/05/20 07:09:19;;;;;;;9.45;6.22;;;23.70;1.00;;;;;;5013479;28;20030;-41
2022/05/20 07:11:44;;;;;;;8.48;6.05;;;23.80;1.00;;;;;;5012996;28;20041;-40
2022/05/20 07:14:10;;;;;;;10.43;6.43;;;23.80;1.00;;;;;;5015871;28;20018;-40
2022/05/20 07:16:35;;;;;;;8.65;5.38;;;23.80;1.00;;;;;;5014602;28;20108;-40
2022/05/20 07:19:01;;;;;;;11.93;5.55;;;23.90;1.00;;;;;;5014195;28;20026;-40
2022/05/20 07:21:27;;;;;;;10.50;5.55;;;23.90;1.00;;;;;;5009118;28;20061;-41
2022/05/20 07:23:53;;;;;;;7.65;5.15;;;23.90;1.00;;;;;;5000583;28;20030;-42
2022/05/20 07:26:19;;;;;;;7.30;5.88;;;23.90;1.00;;;;;;4998295;28;20464;-38
2022/05/20 07:28:45;;;;;;;15.05;5.97;;;24.00;1.00;;;;;;4997198;28;20069;-38
2022/05/20 07:31:11;;;;;;;9.15;4.70;;;24.00;1.00;;;;;;5007214;28;20026;-38
2022/05/20 07:33:37;;;;;;;9.65;5.63;;;24.10;1.00;;;;;;5013508;28;20369;-42
2022/05/20 07:36:04;;;;;;;9.27;4.82;;;24.00;1.00;;;;;;5012003;28;20034;-39
2022/05/20 07:38:29;;;;;;;8.30;4.45;;;24.10;1.00;;;;;;5005554;28;20026;-39
2022/05/20 07:40:56;;;;;;;10.05;6.13;;;24.10;1.00;;;;;;5022515;28;20080;-39
2022/05/20 07:43:24;;;;;;;7.82;5.40;;;24.20;1.00;;;;;;5012885;28;20021;-40
2022/05/20 07:45:51;;;;;;;10.57;4.97;;;24.20;1.00;;;;;;5013687;28;20034;-39
2022/05/20 07:48:17;;;;;;;7.43;4.95;;;24.30;1.00;;;;;;4997582;28;20038;-39
2022/05/20 07:50:45;;;;;;;9.65;4.13;;;24.30;1.00;;;;;;4998458;28;20037;-40
2022/05/20 07:53:19;;;;;;;9.48;4.32;;;24.30;1.00;;;;;;5010740;28;20379;-39
2022/05/20 07:55:48;;;;;;;7.65;3.95;;;24.40;1.00;;;;;;5007449;28;20044;-40
2022/05/20 07:58:17;;;;;;;6.97;4.22;;;24.40;1.00;;;;;;5012485;28;20029;-39
2022/05/20 08:00:43;;;;;;;6.63;3.90;;;24.40;1.00;;;;;;5013549;28;20414;-40
2022/05/20 08:03:13;;;;;;;7.07;3.90;;;24.50;1.00;;;;;;5009633;28;20053;-41
2022/05/20 08:05:39;;;;;;;10.13;4.22;;;24.50;1.00;;;;;;5001483;28;20026;-39
2022/05/20 08:08:07;;;;;;;13.68;5.15;;;24.50;1.00;;;;;;5010210;28;20380;-39
2022/05/20 08:10:35;;;;;;;6.10;3.65;;;24.40;1.00;;;;;;5013231;28;20108;-39
2022/05/20 08:13:02;;;;;;;6.57;4.13;;;24.60;1.00;;;;;;4998956;28;20109;-38
2022/05/20 08:15:29;;;;;;;7.75;4.53;;;24.60;1.00;;;;;;4995195;28;20117;-40
2022/05/20 08:17:55;;;;;;;14.73;5.05;;;24.60;1.00;;;;;;5010783;28;20030;-40
2022/05/20 08:20:30;;;;;;;5.40;4.15;;;24.70;1.00;;;;;;5014534;28;20037;-40
2022/05/20 08:22:56;;;;;;;9.02;3.90;;;24.70;1.00;;;;;;5010361;28;20064;-39
2022/05/20 08:25:24;;;;;;;13.18;4.68;;;24.80;1.00;;;;;;5014038;28;20476;-39
2022/05/20 08:27:50;;;;;;;8.50;4.90;;;24.80;1.00;;;;;;5018462;28;20022;-39
2022/05/20 08:30:25;;;;;;;10.05;5.45;;;24.80;1.00;;;;;;5014342;28;20383;-39
2022/05/20 08:32:51;;;;;;;12.07;5.10;;;24.90;1.00;;;;;;5011402;28;20053;-39
2022/05/20 08:35:17;;;;;;;9.60;5.45;;;24.90;1.00;;;;;;5011690;28;20082;-40
2022/05/20 08:37:46;;;;;;;10.23;5.47;;;25.00;1.00;;;;;;5009738;28;20049;-39
2022/05/20 08:40:32;;;;;;;8.93;4.82;;;25.00;1.00;;;;;;5008708;28;20030;-39
2022/05/20 08:43:01;;;;;;;13.00;5.97;;;25.10;1.00;;;;;;5002261;28;20077;-39
2022/05/20 08:45:29;;;;;;;10.00;5.20;;;25.10;1.00;;;;;;5010711;28;20037;-39
2022/05/20 08:47:56;;;;;;;7.57;4.93;;;25.10;1.00;;;;;;5007860;28;20072;-38
2022/05/20 08:50:47;;;;;;;10.80;5.03;;;25.10;1.00;;;;;;5010272;28;20483;-39
2022/05/20 08:53:45;;;;;;;8.00;5.43;;;25.20;1.00;;;;;;5006338;28;20084;-39
2022/05/20 08:56:14;;;;;;;9.27;5.82;;;25.20;1.00;;;;;;5008459;28;20077;-39
2022/05/20 08:58:54;;;;;;;7.45;5.72;;;25.30;1.00;;;;;;5010440;28;20387;-39
2022/05/20 09:01:28;;;;;;;7.47;5.28;;;25.40;1.00;;;;;;4999720;28;20133;-38
2022/05/20 09:03:53;;;;;;;10.80;5.20;;;25.40;1.00;;;;;;5011943;28;20075;-39
2022/05/20 09:06:20;;;;;;;5.55;5.00;;;25.40;1.00;;;;;;5011361;28;20033;-39
2022/05/20 09:09:20;;;;;;;9.48;4.90;;;25.40;1.00;;;;;;5009428;28;20022;-39
2022/05/20 09:11:57;;;;;;;10.13;5.53;;;25.40;1.00;;;;;;5006883;28;20064;-39
2022/05/20 09:17:21;;;;;;;8.88;6.53;;;25.40;1.00;;;;;;5008938;28;20503;-40
2022/05/20 09:20:05;;;;;;;5.80;4.55;;;25.50;1.00;;;;;;5010047;28;20030;-39
2022/05/20 09:22:35;;;;;;;9.82;6.70;;;25.50;1.00;;;;;;5008575;28;20029;-39
2022/05/20 09:25:02;;;;;;;9.48;5.28;;;25.50;1.00;;;;;;5009413;28;20052;-40
2022/05/20 09:27:32;;;;;;;8.25;6.03;;;25.60;1.00;;;;;;5005997;28;20025;-40
2022/05/20 09:30:02;;;;;;;11.55;5.63;;;25.70;1.00;;;;;;5010495;28;20030;-39
2022/05/20 09:32:44;;;;;;;8.40;6.57;;;25.70;1.00;;;;;;5010697;28;20153;-39
2022/05/20 09:35:18;;;;;;;9.98;6.15;;;25.80;1.00;;;;;;5011402;28;20030;-40
2022/05/20 09:37:46;;;;;;;9.23;5.65;;;25.90;1.00;;;;;;5011237;28;20034;-39
2022/05/20 09:40:37;;;;;;;7.43;5.03;;;26.00;1.00;;;;;;5009881;28;20088;-39
2022/05/20 09:43:28;;;;;;;6.45;4.88;;;26.00;1.00;;;;;;4998483;28;20038;-39
2022/05/20 09:46:00;;;;;;;8.00;5.93;;;26.10;1.00;;;;;;5008382;28;20065;-40
2022/05/20 09:48:38;;;;;;;7.78;5.85;;;26.20;1.00;;;;;;5011620;28;20034;-39
2022/05/20 09:51:15;;;;;;;9.13;5.60;;;26.20;1.00;;;;;;5011528;28;20576;-40
2022/05/20 09:53:43;;;;;;;8.65;5.05;;;26.30;1.00;;;;;;5008499;28;20040;-40
2022/05/20 09:56:29;;;;;;;8.60;4.85;;;26.30;1.00;;;;;;5011739;28;20040;-41
2022/05/20 09:59:39;;;;;;;10.63;5.35;;;26.30;1.00;;;;;;5009417;28;20033;-40
2022/05/20 10:02:25;;;;;;;10.93;5.43;;;26.40;1.00;;;;;;4979146;28;20077;-40
2022/05/20 10:05:09;;;;;;;7.60;4.82;;;26.50;1.00;;;;;;5005609;28;20380;-41
2022/05/20 10:07:41;;;;;;;;;;;26.50;1.00;;;;;;5003605;28;20034;-40
2022/05/20 10:10:38;;;;;;;8.50;5.43;;;26.60;1.00;;;;;;5010216;28;19910;-40
2022/05/20 10:13:07;;;;;;;6.45;5.72;;;26.70;1.00;;;;;;4979349;28;20074;-40
2022/05/20 10:15:46;;;;;;;10.65;6.55;;;26.70;1.00;;;;;;5010880;28;20065;-41
2022/05/20 10:18:40;;;;;;;8.82;5.50;;;26.80;1.00;;;;;;5010999;28;20109;-40
2022/05/20 10:21:17;;;;;;;8.43;5.43;;;26.90;1.00;;;;;;5004388;28;20057;-39
2022/05/20 10:23:49;;;;;;;12.98;6.00;;;27.00;1.00;;;;;;5009131;28;20708;-39
2022/05/20 10:26:25;;;;;;;8.15;5.63;;;27.00;1.00;;;;;;5010928;28;20487;-39
2022/05/20 10:34:49;;;;;;;8.23;5.60;;;27.10;1.00;;;;;;5012342;28;20399;-39
2022/05/20 10:37:28;;;;;;;6.53;5.80;;;27.30;1.00;;;;;;5010133;28;20105;-39
2022/05/20 10:40:31;;;;;;;6.05;5.47;;;27.40;1.00;;;;;;5009093;28;20029;-40
2022/05/20 10:43:04;;;;;;;11.75;4.95;;;27.30;1.00;;;;;;5010923;28;20033;-39
2022/05/20 10:48:45;;;;;;;7.57;4.90;;;27.60;1.00;;;;;;5008780;28;20041;-40
2022/05/20 10:51:23;;;;;;;5.45;4.88;;;27.70;1.00;;;;;;4998882;28;20504;-39
2022/05/20 10:54:03;;;;;;;5.70;4.35;;;27.80;1.00;;;;;;5008700;28;20403;-39
2022/05/20 10:56:34;;;;;;;8.70;5.35;;;27.80;1.00;;;;;;5007432;28;20376;-39
2022/05/20 10:59:21;;;;;;;10.20;5.50;;;28.00;1.00;;;;;;5013172;28;20072;-39
2022/05/20 11:02:06;;;;;;;10.55;5.32;;;28.20;1.00;;;;;;5009873;28;20059;-41
2022/05/20 11:04:38;;;;;;;10.15;6.60;;;28.30;1.00;;;;;;5014428;28;20037;-40
2022/05/20 11:07:38;;;;;;;12.45;5.68;;;28.40;1.00;;;;;;5013537;28;20034;-40
2022/05/20 11:10:23;;;;;;;6.03;5.15;;;28.50;1.00;;;;;;5012207;28;20078;-40
2022/05/20 11:13:25;;;;;;;12.20;6.45;;;28.50;1.00;;;;;;5013079;28;20026;-40
2022/05/20 11:16:07;;;;;;;12.57;6.38;;;28.60;1.00;;;;;;5003319;28;20044;-40
2022/05/20 11:18:35;;;;;;;13.68;5.30;;;28.80;1.00;;;;;;5013486;28;20057;-40
2022/05/20 11:21:22;;;;;;;10.25;5.03;;;29.00;1.00;;;;;;5013037;28;20026;-39
2022/05/20 11:24:01;;;;;;;8.45;5.65;;;29.10;1.00;;;;;;5012674;28;20061;-39
2022/05/20 11:26:39;;;;;;;8.85;5.18;;;29.20;1.00;;;;;;5013540;28;20026;-40
2022/05/20 11:29:29;;;;;;;5.75;5.25;;;29.40;1.00;;;;;;5014394;28;20133;-41
2022/05/20 11:32:02;;;;;;;8.65;6.20;;;29.70;1.00;;;;;;5012219;28;20037;-39
2022/05/20 11:35:12;;;;;;;8.05;5.80;;;30.10;1.00;;;;;;5015494;28;20025;-39
2022/05/20 11:38:19;;;;;;;6.28;5.72;;;31.20;1.00;;;;;;5009037;28;20050;-39
2022/05/20 11:41:04;;;;;;;9.23;5.68;;;31.20;1.00;;;;;;5013019;28;20030;-38
2022/05/20 11:43:30;;;;;;;8.32;5.43;;;32.20;1.00;;;;;;4997046;28;20049;-39
2022/05/20 11:46:33;;;;;;;6.68;5.28;;;32.00;1.00;;;;;;5011982;28;20038;-39
2022/05/20 11:49:15;;;;;;;7.85;5.05;;;31.70;1.00;;;;;;5008170;28;20038;-39
2022/05/20 11:51:52;;;;;;;10.63;6.65;;;31.50;1.00;;;;;;5012596;28;20472;-39
2022/05/20 11:54:28;;;;;;;6.40;5.65;;;31.50;1.00;;;;;;5008170;28;20045;-40
2022/05/20 11:57:11;;;;;;;10.13;6.10;;;31.70;1.00;;;;;;5013037;28;20068;-40
2022/05/20 11:59:49;;;;;;;8.57;6.13;;;31.30;1.00;;;;;;5014056;28;20499;-44
2022/05/20 12:02:17;;;;;;;7.95;6.70;;;31.70;1.00;;;;;;4996949;28;20050;-40
2022/05/20 12:04:44;;;;;;;6.40;5.80;;;32.10;1.00;;;;;;4995224;28;20026;-41
2022/05/20 12:07:16;;;;;;;9.05;6.30;;;32.30;1.00;;;;;;5005699;28;20054;-41
2022/05/20 12:09:45;;;;;;;9.98;6.90;;;32.90;1.00;;;;;;5010503;28;20029;-39
2022/05/20 12:12:49;;;;;;;7.38;6.68;;;33.30;1.00;;;;;;5011922;28;20061;-39
2022/05/20 12:15:21;;;;;;;;;;;33.80;1.00;;;;;;5009556;28;20053;-39
2022/05/20 12:17:49;;;;;;;7.60;6.85;;;33.50;1.00;;;;;;5009260;28;19910;-39
2022/05/20 12:25:57;;;;;;;8.98;6.57;;;33.80;1.00;;;;;;5001109;28;20095;-42
2022/05/20 12:28:23;;;;;;;9.98;6.30;;;34.10;1.00;;;;;;5011534;28;20092;-41
2022/05/20 12:31:13;;;;;;;8.43;6.45;;;34.10;1.00;;;;;;5010876;28;20033;-42
2022/05/20 12:33:59;;;;;;;9.38;7.18;;;34.90;1.00;;;;;;5007749;28;20038;-39
2022/05/20 12:36:27;;;;;;;9.43;7.75;;;35.00;1.00;;;;;;5001697;28;20072;-40
2022/05/20 12:39:12;;;;;;;8.93;6.80;;;35.00;1.00;;;;;;5005622;28;20027;-44
2022/05/20 12:41:53;;;;;;;7.30;6.43;;;34.70;1.00;;;;;;5010875;28;20034;-41
2022/05/20 12:44:22;;;;;;;10.57;6.65;;;34.00;1.00;;;;;;5012975;28;20038;-39
2022/05/20 12:46:59;;;;;;;7.15;6.40;;;35.10;1.00;;;;;;5007842;28;20090;-41
2022/05/20 12:49:31;;;;;;;8.52;6.20;;;36.30;1.00;;;;;;4999401;28;20033;-40
2022/05/20 12:52:11;;;;;;;7.65;6.95;;;38.80;1.00;;;;;;5010613;28;20080;-40
2022/05/20 12:54:43;;;;;;;7.20;6.63;;;39.60;1.00;;;;;;4999983;28;20029;-38
2022/05/20 12:57:31;;;;;;;7.32;6.63;;;39.00;1.00;;;;;;5010305;28;20064;-39
2022/05/20 12:59:58;;;;;;;10.48;7.65;;;39.60;1.00;;;;;;5012376;28;20498;-39
2022/05/20 13:02:31;;;;;;;10.02;7.13;;;38.90;1.00;;;;;;5012725;28;20046;-46
2022/05/20 13:05:18;;;;;;;7.63;6.90;;;38.50;1.00;;;;;;5013299;28;20492;-40
2022/05/20 13:07:45;;;;;;;7.13;6.47;;;38.70;1.00;;;;;;5004241;28;20030;-39
2022/05/20 13:10:30;;;;;;;7.88;7.20;;;38.30;1.00;;;;;;5011051;28;20037;-43
2022/05/20 13:13:04;;;;;;;7.85;7.05;;;37.40;1.00;;;;;;5006487;28;20030;-40
2022/05/20 13:15:31;;;;;;;8.10;7.15;;;37.10;1.00;;;;;;5009939;28;20053;-43
2022/05/20 13:18:02;;;;;;;7.20;6.53;;;36.70;1.00;;;;;;5013001;28;20022;-39
2022/05/20 13:20:31;;;;;;;7.82;7.18;;;36.50;1.00;;;;;;5012025;28;20037;-43
2022/05/20 13:23:01;;;;;;;11.88;7.50;;;36.50;1.00;;;;;;5011443;28;20030;-46
2022/05/20 13:25:28;;;;;;;8.00;7.18;;;35.70;1.00;;;;;;5011987;28;20059;-41
2022/05/20 13:27:53;;;;;;;7.50;5.97;;;35.30;1.00;;;;;;5012916;28;20380;-43
2022/05/20 13:30:23;;;;;;;7.57;6.97;;;36.20;1.00;;;;;;5010880;28;20034;-42
2022/05/20 13:32:49;;;;;;;9.52;6.43;;;35.90;1.00;;;;;;4998851;28;20022;-44
2022/05/20 13:35:15;;;;;;;10.30;6.72;;;36.20;1.00;;;;;;5006039;28;20550;-44
2022/05/20 13:37:45;;;;;;;8.88;6.50;;;36.60;1.00;;;;;;5011362;28;20037;-42
2022/05/20 13:40:13;;;;;;;7.10;6.30;;;36.20;1.00;;;;;;5011796;28;20032;-40
2022/05/20 13:42:44;;;;;;;10.43;7.18;;;35.90;1.00;;;;;;5008437;28;20146;-43
2022/05/20 13:45:13;;;;;;;7.85;7.13;;;36.50;1.00;;;;;;5012032;28;20037;-46
2022/05/20 13:50:25;;;;;;;10.07;6.30;;;36.60;1.00;;;;;;5000174;28;20036;-39
2022/05/20 13:52:53;;;;;;;11.25;6.60;;;36.40;1.00;;;;;;5009726;28;20034;-40
2022/05/20 13:55:21;;;;;;;7.15;6.45;;;36.20;1.00;;;;;;5011108;28;20070;-40
2022/05/20 13:57:50;;;;;;;7.63;6.90;;;36.40;1.00;;;;;;5010425;28;22333;-40
2022/05/20 14:00:20;;;;;;;7.78;6.50;;;36.40;1.00;;;;;;5002797;28;20026;-40
2022/05/20 14:03:10;;;;;;;7.78;6.57;;;36.40;1.00;;;;;;5004344;28;20446;-40
2022/05/20 14:06:05;;;;;;;7.47;6.82;;;36.30;1.00;;;;;;4997006;28;20038;-39
2022/05/20 14:08:37;;;;;;;6.95;6.28;;;36.30;1.00;;;;;;5003752;28;20104;-40
2022/05/20 14:11:07;;;;;;;7.25;6.53;;;36.10;1.00;;;;;;5006217;28;20491;-40
2022/05/20 14:13:40;;;;;;;7.38;6.68;;;36.00;1.00;;;;;;5005571;28;20076;-40
2022/05/20 14:16:15;;;;;;;6.43;5.70;;;36.40;1.00;;;;;;5008342;28;20125;-39
2022/05/20 14:18:46;;;;;;;7.07;5.95;;;36.50;1.00;;;;;;5012118;28;20022;-39
2022/05/20 14:21:19;;;;;;;7.45;6.28;;;36.20;1.00;;;;;;5007836;28;20062;-39